NOO6332 RJFF-RJOK
Flight info
| Callsign | NOO6332 |
|---|---|
| Flight time | 0h 41m |
| Altitude | 19000 |
| Route | MYE BOTAN KABIL |
| Aircraft | DH8D/M-SDE2E3FGRY/H |
Departure
| Time | 2026-04-20 22:49 |
|---|---|
| Airport | Fukuoka Airport (RJFF) |
Arrival
| Time | 2026-04-20 23:30 |
|---|---|
| Airport | Kochi Ryoma Airport (RJOK) |
| Time | Latitude | Longitude | Altitude | Speed | Heading |
|---|---|---|---|---|---|
| 2026-04-20 22:36 | 33.59041 | 130.45090 | 42 ft | 0 kts | 59° |
| 2026-04-20 22:41 | 33.59043 | 130.45100 | 42 ft | 2 kts | 92° |
| 2026-04-20 22:41 | 33.59030 | 130.45099 | 42 ft | 3 kts | 237° |
| 2026-04-20 22:42 | 33.59003 | 130.45047 | 42 ft | 8 kts | 239° |
| 2026-04-20 22:42 | 33.58977 | 130.45035 | 42 ft | 4 kts | 149° |
| 2026-04-20 22:42 | 33.58934 | 130.45064 | 42 ft | 11 kts | 150° |
| 2026-04-20 22:42 | 33.58846 | 130.45123 | 42 ft | 16 kts | 151° |
| 2026-04-20 22:43 | 33.58752 | 130.45187 | 42 ft | 15 kts | 149° |
| 2026-04-20 22:43 | 33.58663 | 130.45248 | 42 ft | 14 kts | 150° |
| 2026-04-20 22:43 | 33.58580 | 130.45306 | 42 ft | 13 kts | 150° |
| 2026-04-20 22:43 | 33.58499 | 130.45363 | 42 ft | 13 kts | 149° |
| 2026-04-20 22:44 | 33.58421 | 130.45416 | 42 ft | 12 kts | 152° |
| 2026-04-20 22:44 | 33.58345 | 130.45467 | 42 ft | 12 kts | 150° |
| 2026-04-20 22:44 | 33.58271 | 130.45517 | 42 ft | 12 kts | 150° |
| 2026-04-20 22:44 | 33.58198 | 130.45567 | 42 ft | 12 kts | 149° |
| 2026-04-20 22:45 | 33.58126 | 130.45616 | 42 ft | 11 kts | 149° |
| 2026-04-20 22:45 | 33.58054 | 130.45666 | 42 ft | 11 kts | 150° |
| 2026-04-20 22:45 | 33.57983 | 130.45714 | 42 ft | 11 kts | 150° |
| 2026-04-20 22:45 | 33.57913 | 130.45763 | 42 ft | 11 kts | 150° |
| 2026-04-20 22:46 | 33.57843 | 130.45810 | 42 ft | 11 kts | 150° |
| 2026-04-20 22:46 | 33.57776 | 130.45856 | 42 ft | 11 kts | 150° |
| 2026-04-20 22:46 | 33.57708 | 130.45901 | 42 ft | 11 kts | 150° |
| 2026-04-20 22:46 | 33.57639 | 130.45894 | 42 ft | 10 kts | 226° |
| 2026-04-20 22:47 | 33.57606 | 130.45824 | 42 ft | 9 kts | 244° |
| 2026-04-20 22:47 | 33.57584 | 130.45763 | 42 ft | 3 kts | 264° |
| 2026-04-20 22:47 | 33.57594 | 130.45749 | 42 ft | 0 kts | 333° |
| 2026-04-20 22:48 | 33.57633 | 130.45725 | 43 ft | 36 kts | 331° |
| 2026-04-20 22:48 | 33.58121 | 130.45392 | 43 ft | 119 kts | 330° |
| 2026-04-20 22:48 | 33.58982 | 130.44812 | 156 ft | 155 kts | 334° |
| 2026-04-20 22:49 | 33.59954 | 130.44167 | 701 ft | 164 kts | 333° |
| 2026-04-20 22:49 | 33.60938 | 130.43462 | 1357 ft | 169 kts | 334° |
| 2026-04-20 22:49 | 33.61960 | 130.42789 | 2054 ft | 170 kts | 338° |
| 2026-04-20 22:49 | 33.62980 | 130.42127 | 2798 ft | 168 kts | 338° |
| 2026-04-20 22:50 | 33.63988 | 130.41460 | 3482 ft | 167 kts | 339° |
| 2026-04-20 22:50 | 33.65001 | 130.40788 | 4132 ft | 169 kts | 337° |
| 2026-04-20 22:50 | 33.66061 | 130.40214 | 4774 ft | 165 kts | 354° |
| 2026-04-20 22:50 | 33.67106 | 130.40659 | 5304 ft | 173 kts | 45° |
| 2026-04-20 22:51 | 33.67543 | 130.42067 | 5840 ft | 189 kts | 71° |
| 2026-04-20 22:51 | 33.67741 | 130.43637 | 6444 ft | 195 kts | 74° |
| 2026-04-20 22:51 | 33.67916 | 130.45258 | 6982 ft | 199 kts | 75° |
| 2026-04-20 22:51 | 33.68080 | 130.46936 | 7507 ft | 204 kts | 75° |
| 2026-04-20 22:52 | 33.68236 | 130.48637 | 8028 ft | 209 kts | 76° |
| 2026-04-20 22:52 | 33.68386 | 130.50374 | 8576 ft | 213 kts | 76° |
| 2026-04-20 22:52 | 33.68535 | 130.52145 | 9066 ft | 217 kts | 77° |
| 2026-04-20 22:52 | 33.68682 | 130.53958 | 9577 ft | 222 kts | 77° |
| 2026-04-20 22:53 | 33.68830 | 130.55829 | 10099 ft | 224 kts | 77° |
| 2026-04-20 22:53 | 33.68975 | 130.57690 | 10548 ft | 231 kts | 77° |
| 2026-04-20 22:53 | 33.69125 | 130.59634 | 11015 ft | 235 kts | 78° |
| 2026-04-20 22:53 | 33.69277 | 130.61614 | 11442 ft | 241 kts | 79° |
| 2026-04-20 22:54 | 33.69430 | 130.63640 | 11842 ft | 247 kts | 79° |
| 2026-04-20 22:54 | 33.69585 | 130.65703 | 12239 ft | 254 kts | 80° |
| 2026-04-20 22:54 | 33.69750 | 130.67870 | 12467 ft | 266 kts | 80° |
| 2026-04-20 22:54 | 33.69914 | 130.70082 | 12911 ft | 270 kts | 80° |
| 2026-04-20 22:55 | 33.70083 | 130.72348 | 13212 ft | 277 kts | 81° |
| 2026-04-20 22:55 | 33.70253 | 130.74652 | 13610 ft | 280 kts | 81° |
| 2026-04-20 22:55 | 33.70426 | 130.77008 | 13927 ft | 287 kts | 81° |
| 2026-04-20 22:55 | 33.70600 | 130.79408 | 14367 ft | 288 kts | 82° |
| 2026-04-20 22:56 | 33.70775 | 130.81799 | 14726 ft | 289 kts | 81° |
| 2026-04-20 22:56 | 33.70949 | 130.84201 | 15104 ft | 292 kts | 82° |
| 2026-04-20 22:56 | 33.71126 | 130.86632 | 15438 ft | 295 kts | 81° |
| 2026-04-20 22:56 | 33.71304 | 130.89092 | 15833 ft | 296 kts | 81° |
| 2026-04-20 22:57 | 33.71481 | 130.91542 | 16161 ft | 298 kts | 81° |
| 2026-04-20 22:57 | 33.71662 | 130.94057 | 16450 ft | 302 kts | 81° |
| 2026-04-20 22:57 | 33.71840 | 130.96542 | 16811 ft | 303 kts | 82° |
| 2026-04-20 22:57 | 33.72022 | 130.99075 | 17084 ft | 308 kts | 82° |
| 2026-04-20 22:58 | 33.72205 | 131.01643 | 17416 ft | 309 kts | 82° |
| 2026-04-20 22:58 | 33.72389 | 131.04233 | 17672 ft | 311 kts | 82° |
| 2026-04-20 22:58 | 33.72572 | 131.06818 | 17981 ft | 313 kts | 82° |
| 2026-04-20 22:58 | 33.72755 | 131.09418 | 18319 ft | 313 kts | 82° |
| 2026-04-20 22:59 | 33.72939 | 131.12038 | 18629 ft | 315 kts | 82° |
| 2026-04-20 22:59 | 33.73125 | 131.14679 | 18892 ft | 318 kts | 83° |
| 2026-04-20 22:59 | 33.73316 | 131.17377 | 19035 ft | 327 kts | 82° |
| 2026-04-20 22:59 | 33.73509 | 131.20125 | 19077 ft | 340 kts | 83° |
| 2026-04-20 23:00 | 33.73712 | 131.23012 | 19096 ft | 352 kts | 82° |
| 2026-04-20 23:00 | 33.73921 | 131.25996 | 19103 ft | 364 kts | 83° |
| 2026-04-20 23:00 | 33.74131 | 131.29028 | 19102 ft | 373 kts | 83° |
| 2026-04-20 23:00 | 33.74346 | 131.32163 | 19100 ft | 382 kts | 83° |
| 2026-04-20 23:01 | 33.74566 | 131.35371 | 19099 ft | 389 kts | 83° |
| 2026-04-20 23:01 | 33.74791 | 131.38666 | 19085 ft | 394 kts | 83° |
| 2026-04-20 23:01 | 33.75013 | 131.41931 | 19092 ft | 392 kts | 83° |
| 2026-04-20 23:01 | 33.75235 | 131.45200 | 19087 ft | 391 kts | 83° |
| 2026-04-20 23:02 | 33.75452 | 131.48408 | 19070 ft | 390 kts | 83° |
| 2026-04-20 23:02 | 33.75670 | 131.51643 | 19080 ft | 389 kts | 83° |
| 2026-04-20 23:02 | 33.75889 | 131.54910 | 19082 ft | 388 kts | 83° |
| 2026-04-20 23:02 | 33.76104 | 131.58134 | 19079 ft | 388 kts | 83° |
| 2026-04-20 23:03 | 33.76316 | 131.61334 | 19073 ft | 387 kts | 83° |
| 2026-04-20 23:03 | 33.76530 | 131.64557 | 19079 ft | 388 kts | 83° |
| 2026-04-20 23:03 | 33.76743 | 131.67790 | 19066 ft | 387 kts | 84° |
| 2026-04-20 23:03 | 33.76953 | 131.71002 | 19068 ft | 386 kts | 83° |
| 2026-04-20 23:04 | 33.77164 | 131.74226 | 19077 ft | 386 kts | 83° |
| 2026-04-20 23:04 | 33.77374 | 131.77446 | 19079 ft | 385 kts | 84° |
| 2026-04-20 23:04 | 33.77580 | 131.80632 | 19074 ft | 385 kts | 83° |
| 2026-04-20 23:04 | 33.77785 | 131.83815 | 19069 ft | 385 kts | 83° |
| 2026-04-20 23:05 | 33.77992 | 131.87019 | 19066 ft | 385 kts | 84° |
| 2026-04-20 23:05 | 33.78197 | 131.90222 | 19069 ft | 385 kts | 83° |
| 2026-04-20 23:05 | 33.78401 | 131.93431 | 19067 ft | 385 kts | 83° |
| 2026-04-20 23:05 | 33.78605 | 131.96646 | 19067 ft | 385 kts | 84° |
| 2026-04-20 23:06 | 33.78807 | 131.99850 | 19070 ft | 386 kts | 84° |
| 2026-04-20 23:06 | 33.79011 | 132.03081 | 19069 ft | 386 kts | 84° |
| 2026-04-20 23:06 | 33.79210 | 132.06249 | 19064 ft | 386 kts | 84° |
| 2026-04-20 23:06 | 33.79410 | 132.09459 | 19066 ft | 385 kts | 83° |
| 2026-04-20 23:07 | 33.79611 | 132.12689 | 19065 ft | 385 kts | 84° |
| 2026-04-20 23:07 | 33.79808 | 132.15878 | 19068 ft | 386 kts | 83° |
| 2026-04-20 23:07 | 33.80007 | 132.19104 | 19071 ft | 386 kts | 83° |
| 2026-04-20 23:07 | 33.80205 | 132.22322 | 19063 ft | 386 kts | 83° |
| 2026-04-20 23:08 | 33.80402 | 132.25539 | 19065 ft | 387 kts | 83° |
| 2026-04-20 23:08 | 33.80596 | 132.28734 | 19067 ft | 387 kts | 83° |
| 2026-04-20 23:08 | 33.80793 | 132.31981 | 19064 ft | 387 kts | 84° |
| 2026-04-20 23:08 | 33.80987 | 132.35202 | 19061 ft | 387 kts | 84° |
| 2026-04-20 23:09 | 33.81181 | 132.38434 | 19057 ft | 387 kts | 83° |
| 2026-04-20 23:09 | 33.81373 | 132.41640 | 19072 ft | 387 kts | 84° |
| 2026-04-20 23:09 | 33.81564 | 132.44842 | 19064 ft | 387 kts | 84° |
| 2026-04-20 23:09 | 33.81755 | 132.48071 | 19060 ft | 387 kts | 83° |
| 2026-04-20 23:10 | 33.81946 | 132.51296 | 19058 ft | 387 kts | 84° |
| 2026-04-20 23:10 | 33.82136 | 132.54538 | 19061 ft | 388 kts | 84° |
| 2026-04-20 23:10 | 33.82289 | 132.57141 | 19061 ft | 388 kts | 83° |
| 2026-04-20 23:10 | 33.82475 | 132.60332 | 19065 ft | 388 kts | 83° |
| 2026-04-20 23:11 | 33.82663 | 132.63585 | 19072 ft | 388 kts | 84° |
| 2026-04-20 23:11 | 33.82768 | 132.66814 | 19050 ft | 389 kts | 93° |
| 2026-04-20 23:11 | 33.82051 | 132.69917 | 19065 ft | 379 kts | 123° |
| 2026-04-20 23:11 | 33.80548 | 132.72398 | 19071 ft | 362 kts | 136° |
| 2026-04-20 23:12 | 33.78909 | 132.74696 | 18788 ft | 361 kts | 137° |
| 2026-04-20 23:12 | 33.77262 | 132.76967 | 18461 ft | 359 kts | 137° |
| 2026-04-20 23:12 | 33.75635 | 132.79195 | 18135 ft | 358 kts | 138° |
| 2026-04-20 23:12 | 33.73977 | 132.81456 | 17789 ft | 357 kts | 138° |
| 2026-04-20 23:13 | 33.72349 | 132.83673 | 17434 ft | 357 kts | 137° |
| 2026-04-20 23:13 | 33.70702 | 132.85912 | 17112 ft | 356 kts | 137° |
| 2026-04-20 23:13 | 33.69078 | 132.88117 | 16767 ft | 355 kts | 137° |
| 2026-04-20 23:13 | 33.67450 | 132.90321 | 16417 ft | 354 kts | 137° |
| 2026-04-20 23:14 | 33.65825 | 132.92525 | 16073 ft | 353 kts | 137° |
| 2026-04-20 23:14 | 33.64193 | 132.94736 | 15712 ft | 351 kts | 137° |
| 2026-04-20 23:14 | 33.62585 | 132.96909 | 15367 ft | 349 kts | 137° |
| 2026-04-20 23:14 | 33.60973 | 132.99086 | 15023 ft | 347 kts | 136° |
| 2026-04-20 23:15 | 33.59369 | 133.01253 | 14683 ft | 345 kts | 136° |
| 2026-04-20 23:15 | 33.57788 | 133.03386 | 14357 ft | 343 kts | 136° |
| 2026-04-20 23:15 | 33.56205 | 133.05519 | 14022 ft | 340 kts | 136° |
| 2026-04-20 23:15 | 33.54640 | 133.07631 | 13695 ft | 338 kts | 136° |
| 2026-04-20 23:16 | 33.53090 | 133.09717 | 13361 ft | 337 kts | 136° |
| 2026-04-20 23:16 | 33.51545 | 133.11800 | 13032 ft | 330 kts | 135° |
| 2026-04-20 23:16 | 33.50034 | 133.13834 | 12699 ft | 324 kts | 135° |
| 2026-04-20 23:16 | 33.48557 | 133.15825 | 12389 ft | 318 kts | 134° |
| 2026-04-20 23:17 | 33.47313 | 133.17979 | 11969 ft | 317 kts | 112° |
| 2026-04-20 23:17 | 33.47032 | 133.20525 | 11708 ft | 303 kts | 82° |
| 2026-04-20 23:17 | 33.47333 | 133.22992 | 11423 ft | 295 kts | 77° |
| 2026-04-20 23:17 | 33.47680 | 133.25392 | 11134 ft | 290 kts | 76° |
| 2026-04-20 23:18 | 33.48019 | 133.27722 | 10864 ft | 287 kts | 78° |
| 2026-04-20 23:18 | 33.47916 | 133.30078 | 10596 ft | 284 kts | 101° |
| 2026-04-20 23:18 | 33.47389 | 133.32349 | 10323 ft | 280 kts | 104° |
| 2026-04-20 23:18 | 33.46854 | 133.34547 | 10052 ft | 275 kts | 104° |
| 2026-04-20 23:19 | 33.46284 | 133.36723 | 9774 ft | 272 kts | 105° |
| 2026-04-20 23:19 | 33.45695 | 133.38876 | 9489 ft | 268 kts | 105° |
| 2026-04-20 23:19 | 33.45118 | 133.40970 | 9213 ft | 265 kts | 106° |
| 2026-04-20 23:19 | 33.44539 | 133.43034 | 8930 ft | 262 kts | 106° |
| 2026-04-20 23:20 | 33.43961 | 133.45110 | 8637 ft | 259 kts | 103° |
| 2026-04-20 23:20 | 33.43505 | 133.47185 | 8345 ft | 256 kts | 100° |
| 2026-04-20 23:20 | 33.43088 | 133.49229 | 8188 ft | 255 kts | 100° |
| 2026-04-20 23:20 | 33.42646 | 133.51303 | 7982 ft | 263 kts | 101° |
| 2026-04-20 23:21 | 33.42172 | 133.53462 | 7744 ft | 270 kts | 101° |
| 2026-04-20 23:21 | 33.41676 | 133.55662 | 7478 ft | 278 kts | 101° |
| 2026-04-20 23:21 | 33.41159 | 133.57906 | 7203 ft | 284 kts | 102° |
| 2026-04-20 23:21 | 33.40624 | 133.60200 | 6924 ft | 288 kts | 101° |
| 2026-04-20 23:22 | 33.40086 | 133.62488 | 6636 ft | 285 kts | 102° |
| 2026-04-20 23:22 | 33.39555 | 133.64729 | 6354 ft | 271 kts | 101° |
| 2026-04-20 23:22 | 33.39051 | 133.66849 | 6096 ft | 259 kts | 102° |
| 2026-04-20 23:22 | 33.38568 | 133.68870 | 5852 ft | 251 kts | 102° |
| 2026-04-20 23:23 | 33.38086 | 133.70875 | 5612 ft | 251 kts | 102° |
| 2026-04-20 23:23 | 33.37606 | 133.72879 | 5370 ft | 250 kts | 102° |
| 2026-04-20 23:23 | 33.37130 | 133.74855 | 5126 ft | 250 kts | 102° |
| 2026-04-20 23:23 | 33.36669 | 133.76852 | 4829 ft | 251 kts | 97° |
| 2026-04-20 23:24 | 33.36802 | 133.78825 | 4548 ft | 225 kts | 59° |
| 2026-04-20 23:24 | 33.37715 | 133.80160 | 4361 ft | 199 kts | 38° |
| 2026-04-20 23:24 | 33.38712 | 133.81258 | 4109 ft | 195 kts | 38° |
| 2026-04-20 23:24 | 33.39703 | 133.82381 | 3892 ft | 195 kts | 41° |
| 2026-04-20 23:25 | 33.40641 | 133.83548 | 3643 ft | 195 kts | 36° |
| 2026-04-20 23:25 | 33.41833 | 133.84145 | 3416 ft | 182 kts | 356° |
| 2026-04-20 23:25 | 33.42919 | 133.83513 | 3222 ft | 176 kts | 312° |
| 2026-04-20 23:25 | 33.43621 | 133.82309 | 3071 ft | 177 kts | 309° |
| 2026-04-20 23:26 | 33.44375 | 133.81189 | 2881 ft | 169 kts | 314° |
| 2026-04-20 23:26 | 33.45139 | 133.80135 | 2623 ft | 165 kts | 313° |
| 2026-04-20 23:26 | 33.45873 | 133.79112 | 2368 ft | 160 kts | 313° |
| 2026-04-20 23:26 | 33.46578 | 133.78134 | 2210 ft | 156 kts | 314° |
| 2026-04-20 23:27 | 33.47300 | 133.77145 | 2015 ft | 159 kts | 314° |
| 2026-04-20 23:27 | 33.48001 | 133.76167 | 1760 ft | 150 kts | 313° |
| 2026-04-20 23:27 | 33.48659 | 133.75247 | 1600 ft | 140 kts | 313° |
| 2026-04-20 23:27 | 33.49289 | 133.74373 | 1463 ft | 140 kts | 314° |
| 2026-04-20 23:28 | 33.49938 | 133.73476 | 1249 ft | 142 kts | 313° |
| 2026-04-20 23:28 | 33.50563 | 133.72591 | 1034 ft | 137 kts | 313° |
| 2026-04-20 23:28 | 33.51167 | 133.71741 | 843 ft | 130 kts | 314° |
| 2026-04-20 23:28 | 33.51747 | 133.70935 | 680 ft | 126 kts | 315° |
| 2026-04-20 23:29 | 33.52332 | 133.70122 | 560 ft | 130 kts | 314° |
| 2026-04-20 23:29 | 33.52920 | 133.69292 | 387 ft | 132 kts | 313° |
| 2026-04-20 23:29 | 33.53512 | 133.68448 | 189 ft | 131 kts | 314° |
| 2026-04-20 23:29 | 33.54086 | 133.67654 | 38 ft | 118 kts | 313° |
| 2026-04-20 23:30 | 33.54525 | 133.67049 | 36 ft | 66 kts | 310° |
| 2026-04-20 23:30 | 33.54718 | 133.66780 | 40 ft | 10 kts | 309° |
| 2026-04-20 23:30 | 33.54756 | 133.66753 | 40 ft | 5 kts | 13° |
| 2026-04-20 23:30 | 33.54785 | 133.66775 | 40 ft | 4 kts | 38° |
| 2026-04-20 23:31 | 33.54812 | 133.66803 | 40 ft | 6 kts | 39° |
| 2026-04-20 23:31 | 33.54853 | 133.66850 | 39 ft | 8 kts | 70° |
| 2026-04-20 23:31 | 33.54831 | 133.66925 | 39 ft | 11 kts | 130° |
| 2026-04-20 23:31 | 33.54776 | 133.67001 | 39 ft | 13 kts | 131° |
| 2026-04-20 23:32 | 33.54713 | 133.67091 | 39 ft | 14 kts | 131° |
| 2026-04-20 23:32 | 33.54677 | 133.67166 | 39 ft | 5 kts | 35° |
| 2026-04-20 23:32 | 33.54711 | 133.67180 | 39 ft | 4 kts | 40° |
| 2026-04-20 23:32 | 33.54739 | 133.67209 | 39 ft | 5 kts | 41° |
| 2026-04-20 23:33 | 33.54759 | 133.67226 | 39 ft | 1 kts | 18° |
| 2026-04-20 23:33 | 33.54778 | 133.67241 | 39 ft | 2 kts | 71° |
| 2026-04-20 23:33 | 33.54775 | 133.67250 | 39 ft | 0 kts | 140° |
| 2026-04-20 23:33 | 33.54770 | 133.67253 | 39 ft | 0 kts | 169° |
| 2026-04-20 23:34 | 33.54767 | 133.67253 | 39 ft | 0 kts | 179° |
| 2026-04-20 23:34 | 33.54769 | 133.67253 | 39 ft | 0 kts | 179° |
| 2026-04-20 23:34 | 33.54772 | 133.67253 | 39 ft | 0 kts | 179° |